Time;durP1;ratioP1;P1;durP2;ratioP2;P2;SDS_P1;SDS_P2;PMS_P1;PMS_P2;Temp;Humidity;BMP_temperature;BMP_pressure;BME280_temperature;BME280_humidity;BME280_pressure;Samples;Min_cycle;Max_cycle;Signal;HPM_P1;HPM_P2
2023/10/23 00:01:17;;;;;;;10.60;5.72;;;8.40;99.90;;;;;;5051071;28;20068;-56
2023/10/23 00:03:43;;;;;;;10.13;5.40;;;8.10;99.90;;;;;;5051167;28;20068;-55
2023/10/23 00:06:09;;;;;;;11.32;6.00;;;8.20;99.90;;;;;;5050504;28;20111;-57
2023/10/23 00:08:34;;;;;;;10.55;6.00;;;8.10;99.90;;;;;;5050297;28;20041;-58
2023/10/23 00:11:00;;;;;;;11.43;7.93;;;8.00;99.90;;;;;;5051081;28;20473;-58
2023/10/23 00:13:26;;;;;;;9.55;5.50;;;8.00;99.90;;;;;;5050874;28;20483;-56
2023/10/23 00:15:51;;;;;;;14.48;6.03;;;8.10;99.90;;;;;;5050630;28;20036;-56
2023/10/23 00:18:17;;;;;;;11.07;6.03;;;8.20;99.90;;;;;;5032443;28;20480;-56
2023/10/23 00:20:43;;;;;;;12.20;6.38;;;7.90;99.90;;;;;;5051039;28;20219;-56
2023/10/23 00:23:08;;;;;;;12.30;6.35;;;8.20;99.90;;;;;;5050385;28;20044;-56
2023/10/23 00:25:34;;;;;;;11.00;6.18;;;8.10;99.90;;;;;;5050753;28;20633;-57
2023/10/23 00:28:01;;;;;;;10.52;5.68;;;8.00;99.90;;;;;;5051134;28;20108;-54
2023/10/23 00:30:27;;;;;;;10.13;5.60;;;7.90;99.90;;;;;;5032544;28;20037;-56
2023/10/23 00:32:53;;;;;;;11.15;6.40;;;8.10;99.90;;;;;;5050574;28;20037;-55
2023/10/23 00:35:19;;;;;;;10.48;5.72;;;8.00;99.90;;;;;;5050344;28;20420;-55
2023/10/23 00:37:45;;;;;;;12.90;8.27;;;7.90;99.90;;;;;;5050504;28;20037;-55
2023/10/23 00:40:11;;;;;;;8.38;4.90;;;8.20;99.90;;;;;;5050653;28;20075;-58
2023/10/23 00:42:37;;;;;;;11.45;5.53;;;8.00;99.90;;;;;;5050510;28;20095;-57
2023/10/23 00:45:03;;;;;;;10.98;8.77;;;7.90;99.90;;;;;;5050318;28;20048;-55
2023/10/23 00:47:29;;;;;;;10.30;5.97;;;7.80;99.90;;;;;;5050615;28;20041;-55
2023/10/23 00:49:57;;;;;;;10.38;5.55;;;7.80;99.90;;;;;;5051759;28;20044;-53
2023/10/23 00:52:23;;;;;;;12.45;5.75;;;7.90;99.90;;;;;;5054779;28;20477;-58
2023/10/23 00:54:51;;;;;;;11.25;10.02;;;7.80;99.90;;;;;;5054268;28;20064;-55
2023/10/23 00:57:17;;;;;;;10.75;6.07;;;7.70;99.90;;;;;;5054482;28;20091;-54
2023/10/23 00:59:43;;;;;;;11.52;6.35;;;7.90;99.90;;;;;;5054182;28;20466;-57
2023/10/23 01:02:09;;;;;;;12.25;10.48;;;7.90;99.90;;;;;;5054603;28;20128;-57
2023/10/23 01:04:35;;;;;;;9.75;5.40;;;7.70;99.90;;;;;;5054684;28;20051;-53
2023/10/23 01:07:01;;;;;;;11.30;6.07;;;7.70;99.90;;;;;;5054497;28;20033;-54
2023/10/23 01:09:27;;;;;;;15.60;6.22;;;7.80;99.90;;;;;;5054404;28;20111;-54
2023/10/23 01:11:52;;;;;;;12.77;10.88;;;8.10;99.90;;;;;;5054010;28;20457;-59
2023/10/23 01:14:18;;;;;;;16.33;6.25;;;7.70;99.90;;;;;;5036071;28;20071;-56
2023/10/23 01:16:44;;;;;;;10.25;6.25;;;7.90;99.90;;;;;;5053830;28;20036;-55
2023/10/23 01:19:09;;;;;;;11.30;6.30;;;7.90;99.90;;;;;;5054064;28;20175;-57
2023/10/23 01:21:35;;;;;;;10.95;6.13;;;7.80;99.90;;;;;;5053955;28;20044;-57
2023/10/23 01:24:04;;;;;;;9.15;5.90;;;7.60;99.90;;;;;;5053871;28;20044;-57
2023/10/23 01:26:29;;;;;;;13.32;6.45;;;7.70;99.90;;;;;;5053928;28;20044;-54
2023/10/23 01:28:55;;;;;;;13.75;6.60;;;7.70;99.90;;;;;;5053484;28;20033;-58
2023/10/23 01:31:21;;;;;;;12.80;9.23;;;7.90;99.90;;;;;;5053786;28;20483;-57
2023/10/23 01:33:47;;;;;;;10.70;6.07;;;7.50;99.90;;;;;;5053989;28;20181;-58
2023/10/23 01:36:13;;;;;;;11.70;6.07;;;7.70;99.90;;;;;;5053497;28;20041;-57
2023/10/23 01:38:38;;;;;;;12.18;6.57;;;7.80;99.90;;;;;;5053840;28;20044;-56
2023/10/23 01:41:04;;;;;;;9.38;5.57;;;7.50;99.90;;;;;;5035987;28;20143;-58
2023/10/23 01:43:30;;;;;;;10.40;5.93;;;7.40;99.90;;;;;;5053782;28;20110;-57
2023/10/23 01:45:57;;;;;;;10.13;5.53;;;7.50;99.90;;;;;;5053154;28;20122;-58
2023/10/23 01:48:22;;;;;;;9.38;5.40;;;7.40;99.90;;;;;;5053429;28;20127;-53
2023/10/23 01:50:48;;;;;;;9.85;5.18;;;7.50;99.90;;;;;;5053337;28;20128;-52
2023/10/23 01:53:14;;;;;;;8.30;5.40;;;7.20;99.90;;;;;;5053751;28;20041;-56
2023/10/23 01:55:40;;;;;;;9.93;5.28;;;7.20;99.90;;;;;;5053415;28;20033;-58
2023/10/23 01:58:05;;;;;;;11.27;5.70;;;7.30;99.90;;;;;;5053669;28;20047;-56
2023/10/23 02:00:31;;;;;;;8.73;5.88;;;7.50;99.90;;;;;;5052994;28;20128;-57
2023/10/23 02:02:57;;;;;;;9.07;5.13;;;7.30;99.90;;;;;;5053412;28;20115;-52
2023/10/23 02:05:22;;;;;;;12.10;5.93;;;7.00;99.90;;;;;;5052995;28;20036;-56
2023/10/23 02:07:48;;;;;;;10.27;5.70;;;6.90;99.90;;;;;;5053264;28;20037;-56
2023/10/23 02:10:14;;;;;;;9.95;5.40;;;7.20;99.90;;;;;;5052598;28;20040;-59
2023/10/23 02:12:39;;;;;;;8.27;5.47;;;7.10;99.90;;;;;;5053348;28;20406;-57
2023/10/23 02:15:06;;;;;;;9.35;5.55;;;7.00;99.90;;;;;;5053150;28;20407;-56
2023/10/23 02:17:31;;;;;;;10.77;5.32;;;6.90;99.90;;;;;;5018795;28;20041;-55
2023/10/23 02:19:58;;;;;;;10.20;5.93;;;6.90;99.90;;;;;;5035052;28;20506;-56
2023/10/23 02:22:23;;;;;;;8.77;5.38;;;7.20;99.90;;;;;;5052531;28;20052;-54
2023/10/23 02:24:49;;;;;;;13.07;5.97;;;6.90;99.90;;;;;;5051819;28;20044;-57
2023/10/23 02:27:15;;;;;;;11.63;6.07;;;7.10;99.90;;;;;;5052694;28;20064;-56
2023/10/23 02:29:41;;;;;;;10.27;5.45;;;7.10;99.90;;;;;;5052900;28;20040;-58
2023/10/23 02:32:08;;;;;;;9.77;5.68;;;7.00;99.90;;;;;;5052616;28;20554;-57
2023/10/23 02:34:36;;;;;;;9.32;5.50;;;7.00;99.90;;;;;;5052521;28;20040;-54
2023/10/23 02:37:02;;;;;;;9.10;5.95;;;7.00;99.90;;;;;;5052111;28;20384;-55
2023/10/23 02:39:27;;;;;;;8.43;5.65;;;6.80;99.90;;;;;;5052912;28;20033;-55
2023/10/23 02:41:53;;;;;;;9.35;5.97;;;7.00;99.90;;;;;;5052379;28;20033;-59
2023/10/23 02:44:19;;;;;;;10.35;5.88;;;6.90;99.90;;;;;;5052545;28;20040;-56
2023/10/23 02:46:44;;;;;;;11.95;9.95;;;6.90;99.90;;;;;;5052698;28;20136;-57
2023/10/23 02:49:11;;;;;;;8.98;5.25;;;7.10;99.90;;;;;;5018676;28;20099;-57
2023/10/23 02:51:39;;;;;;;11.65;10.45;;;6.80;99.90;;;;;;5052556;28;20472;-57
2023/10/23 02:54:05;;;;;;;9.43;5.88;;;7.00;99.90;;;;;;5017978;28;20050;-59
2023/10/23 02:56:32;;;;;;;12.98;6.43;;;6.90;99.90;;;;;;5052254;28;20641;-60
2023/10/23 02:58:58;;;;;;;10.07;5.88;;;7.00;99.90;;;;;;5052323;28;20108;-54
2023/10/23 03:01:24;;;;;;;10.65;6.18;;;7.10;99.90;;;;;;5034068;28;20127;-53
2023/10/23 03:03:51;;;;;;;9.85;6.25;;;7.10;99.90;;;;;;5052204;28;20037;-55
2023/10/23 03:06:16;;;;;;;9.73;5.95;;;7.00;99.90;;;;;;5051701;28;20111;-53
2023/10/23 03:08:42;;;;;;;9.85;5.72;;;7.00;99.90;;;;;;5052084;28;20120;-54
2023/10/23 03:11:08;;;;;;;10.30;6.15;;;7.10;99.90;;;;;;5052037;28;20051;-54
2023/10/23 03:13:34;;;;;;;13.60;7.22;;;7.10;99.90;;;;;;5051228;28;20087;-58
2023/10/23 03:16:00;;;;;;;16.02;7.72;;;7.10;99.90;;;;;;5052271;28;20402;-57
2023/10/23 03:18:26;;;;;;;11.75;7.07;;;6.80;99.90;;;;;;5052121;28;20033;-54
2023/10/23 03:20:52;;;;;;;11.90;7.10;;;6.90;99.90;;;;;;5051435;28;20044;-54
2023/10/23 03:23:17;;;;;;;14.80;7.70;;;7.10;99.90;;;;;;5033444;28;20066;-57
2023/10/23 03:25:43;;;;;;;12.02;7.57;;;7.20;99.90;;;;;;5051691;28;20059;-56
2023/10/23 03:28:09;;;;;;;11.35;7.82;;;7.20;99.90;;;;;;5051770;28;20044;-57
2023/10/23 03:30:35;;;;;;;11.88;7.47;;;7.30;99.90;;;;;;5051335;28;20171;-52
2023/10/23 03:33:00;;;;;;;12.02;6.95;;;7.00;99.90;;;;;;5050729;28;20037;-57
2023/10/23 03:35:26;;;;;;;10.68;6.85;;;6.90;99.90;;;;;;5051115;28;20472;-55
2023/10/23 03:37:52;;;;;;;11.48;6.70;;;7.00;99.90;;;;;;5051143;28;20115;-57
2023/10/23 03:40:17;;;;;;;12.25;6.75;;;6.80;99.90;;;;;;5052026;28;20183;-56
2023/10/23 03:42:44;;;;;;;12.80;7.75;;;6.90;99.90;;;;;;5050698;28;20484;-57
2023/10/23 03:45:10;;;;;;;9.13;5.90;;;6.80;99.90;;;;;;5050992;28;20153;-54
2023/10/23 03:47:35;;;;;;;11.05;6.78;;;6.70;99.90;;;;;;5049737;28;20037;-55
2023/10/23 03:50:01;;;;;;;11.15;6.32;;;7.00;99.90;;;;;;5050958;28;20086;-57
2023/10/23 03:52:27;;;;;;;9.63;6.50;;;7.00;99.90;;;;;;5051147;28;20036;-57
2023/10/23 03:54:52;;;;;;;10.35;6.65;;;6.90;99.90;;;;;;5051360;28;20068;-56
2023/10/23 03:57:18;;;;;;;8.18;5.90;;;6.80;99.90;;;;;;5051166;28;20036;-54
2023/10/23 03:59:44;;;;;;;12.40;6.45;;;7.00;99.90;;;;;;5051414;28;20366;-55
2023/10/23 04:02:10;;;;;;;11.23;6.13;;;6.70;99.90;;;;;;5051058;28;20042;-56
2023/10/23 04:04:35;;;;;;;11.30;6.57;;;6.90;99.90;;;;;;5051347;28;20040;-55
2023/10/23 04:07:01;;;;;;;10.15;6.70;;;6.90;99.90;;;;;;5050557;28;20484;-56
2023/10/23 04:09:31;;;;;;;14.65;7.13;;;6.80;99.90;;;;;;5051335;28;20075;-55
2023/10/23 04:11:57;;;;;;;12.93;6.25;;;6.50;99.90;;;;;;5050623;28;20036;-57
2023/10/23 04:14:22;;;;;;;11.68;6.18;;;6.70;99.90;;;;;;5050977;28;20473;-55
2023/10/23 04:16:48;;;;;;;15.15;6.63;;;6.60;99.90;;;;;;5050788;28;20434;-52
2023/10/23 04:19:14;;;;;;;11.48;7.00;;;6.80;99.90;;;;;;5051027;28;20029;-56
2023/10/23 04:21:39;;;;;;;10.50;5.55;;;6.50;99.90;;;;;;5050979;28;20044;-55
2023/10/23 04:24:07;;;;;;;12.30;6.63;;;6.50;99.90;;;;;;5050744;28;20385;-56
2023/10/23 04:26:32;;;;;;;11.30;6.68;;;6.40;99.90;;;;;;5032983;28;20112;-56
2023/10/23 04:28:58;;;;;;;9.48;5.63;;;6.70;99.90;;;;;;5050118;28;20116;-56
2023/10/23 04:31:24;;;;;;;10.20;6.88;;;6.40;99.90;;;;;;5050694;28;20048;-55
2023/10/23 04:33:49;;;;;;;12.07;6.38;;;6.50;99.90;;;;;;5050539;28;20383;-58
2023/10/23 04:36:15;;;;;;;14.35;6.90;;;6.40;99.90;;;;;;5050463;28;20068;-57
2023/10/23 04:38:41;;;;;;;14.73;7.35;;;6.40;99.90;;;;;;5050882;28;20040;-54
2023/10/23 04:41:07;;;;;;;14.48;7.45;;;6.50;99.90;;;;;;5050758;28;20493;-56
2023/10/23 04:43:34;;;;;;;14.45;8.02;;;6.50;99.90;;;;;;5050465;28;20116;-54
2023/10/23 04:46:00;;;;;;;16.42;8.40;;;6.50;99.90;;;;;;5050400;28;20081;-54
2023/10/23 04:48:25;;;;;;;17.50;15.70;;;6.80;99.90;;;;;;5050403;28;20577;-55
2023/10/23 04:50:51;;;;;;;14.95;7.78;;;6.90;99.90;;;;;;5050600;28;20062;-53
2023/10/23 04:53:17;;;;;;;13.95;8.02;;;6.70;99.90;;;;;;5032962;28;20032;-55
2023/10/23 04:55:42;;;;;;;13.98;7.50;;;6.80;99.90;;;;;;5032300;28;20094;-54
2023/10/23 04:58:08;;;;;;;13.02;8.23;;;6.80;99.90;;;;;;5050440;28;20033;-55
2023/10/23 05:00:36;;;;;;;16.38;7.93;;;6.50;99.90;;;;;;5050126;28;20079;-57
2023/10/23 05:03:03;;;;;;;16.30;14.52;;;6.80;99.90;;;;;;5050560;28;20040;-52
2023/10/23 05:05:32;;;;;;;14.55;7.78;;;6.40;99.90;;;;;;5032392;28;20045;-54
2023/10/23 05:07:59;;;;;;;16.15;7.07;;;6.40;99.90;;;;;;5050034;28;20048;-55
2023/10/23 05:10:25;;;;;;;13.85;7.47;;;6.70;99.90;;;;;;5050404;28;20391;-56
2023/10/23 05:12:50;;;;;;;10.95;6.93;;;6.40;99.90;;;;;;5050028;28;20044;-57
2023/10/23 05:15:17;;;;;;;14.18;12.40;;;6.50;99.90;;;;;;5050476;28;20037;-56
2023/10/23 05:17:43;;;;;;;17.08;7.72;;;6.60;99.90;;;;;;5049955;28;20522;-55
2023/10/23 05:20:09;;;;;;;15.25;7.03;;;6.30;99.90;;;;;;5050158;28;20076;-56
2023/10/23 05:22:34;;;;;;;13.63;7.72;;;6.30;99.90;;;;;;5050032;28;20056;-57
2023/10/23 05:25:00;;;;;;;12.15;7.13;;;6.30;99.90;;;;;;5050314;28;20037;-55
2023/10/23 05:27:26;;;;;;;14.15;6.95;;;6.30;99.90;;;;;;5050543;28;20107;-53
2023/10/23 05:29:52;;;;;;;12.15;7.35;;;6.40;99.90;;;;;;5050039;28;20025;-59
2023/10/23 05:32:18;;;;;;;12.15;7.53;;;6.50;99.90;;;;;;5050518;28;20040;-57
2023/10/23 05:34:44;;;;;;;10.88;6.57;;;6.20;99.90;;;;;;5031772;28;20047;-51
2023/10/23 05:37:11;;;;;;;12.15;7.25;;;6.50;99.90;;;;;;5053226;28;20033;-55
2023/10/23 05:39:36;;;;;;;11.90;7.15;;;6.60;99.90;;;;;;5053423;28;20066;-57
2023/10/23 05:42:03;;;;;;;10.68;6.60;;;6.20;99.90;;;;;;5053849;28;20116;-55
2023/10/23 05:44:28;;;;;;;10.45;5.95;;;6.00;99.90;;;;;;5053539;28;20079;-57
2023/10/23 05:46:54;;;;;;;10.70;6.63;;;6.20;99.90;;;;;;5053372;28;20551;-54
2023/10/23 05:49:20;;;;;;;12.93;6.93;;;6.50;99.90;;;;;;5053572;28;20090;-54
2023/10/23 05:51:45;;;;;;;14.05;7.30;;;6.00;99.90;;;;;;5053748;28;20041;-57
2023/10/23 05:54:11;;;;;;;14.05;8.50;;;6.30;99.90;;;;;;5053653;28;20469;-55
2023/10/23 05:56:37;;;;;;;19.63;17.08;;;6.20;99.90;;;;;;5053702;28;20037;-53
2023/10/23 05:59:03;;;;;;;17.52;9.68;;;6.10;99.90;;;;;;5053109;28;20036;-54
2023/10/23 06:01:30;;;;;;;19.45;10.07;;;6.50;99.90;;;;;;5034572;28;20048;-54
2023/10/23 06:03:55;;;;;;;22.33;19.50;;;6.70;99.90;;;;;;5053046;28;20037;-56
2023/10/23 06:06:21;;;;;;;19.45;9.43;;;6.40;99.90;;;;;;5053059;28;20043;-57
2023/10/23 06:08:47;;;;;;;19.67;10.27;;;6.80;99.90;;;;;;5053319;28;20395;-57
2023/10/23 06:11:13;;;;;;;19.00;9.65;;;6.30;99.90;;;;;;5053194;28;20064;-54
2023/10/23 06:13:39;;;;;;;18.88;10.38;;;6.50;99.90;;;;;;5052913;28;20059;-57
2023/10/23 06:16:06;;;;;;;17.80;10.20;;;6.50;99.90;;;;;;5053677;28;20512;-56
2023/10/23 06:18:33;;;;;;;19.88;9.10;;;6.20;99.90;;;;;;5035258;28;20063;-56
2023/10/23 06:21:03;;;;;;;19.55;9.93;;;6.60;99.90;;;;;;5053303;28;20041;-56
2023/10/23 06:23:33;;;;;;;16.83;10.45;;;6.50;99.90;;;;;;5052697;28;20049;-56
2023/10/23 06:25:59;;;;;;;17.23;9.43;;;6.30;99.90;;;;;;5053002;28;20037;-56
2023/10/23 06:28:26;;;;;;;16.60;9.88;;;6.10;99.90;;;;;;5052900;28;20430;-55
2023/10/23 06:30:51;;;;;;;17.27;9.65;;;6.40;99.90;;;;;;5053075;28;20029;-59
2023/10/23 06:33:17;;;;;;;20.08;17.27;;;6.00;99.90;;;;;;5052928;28;20469;-58
2023/10/23 06:35:43;;;;;;;15.45;9.55;;;6.10;99.90;;;;;;5035043;28;20075;-53
2023/10/23 06:38:09;;;;;;;18.55;9.82;;;6.30;99.90;;;;;;5052419;28;20068;-56
2023/10/23 06:40:34;;;;;;;17.58;9.63;;;6.00;99.90;;;;;;5052909;28;20396;-58
2023/10/23 06:43:00;;;;;;;17.73;9.88;;;6.40;99.90;;;;;;5052560;28;20037;-58
2023/10/23 06:45:25;;;;;;;16.13;9.50;;;6.30;99.90;;;;;;5052604;28;20179;-54
2023/10/23 06:47:51;;;;;;;17.10;9.93;;;6.10;99.90;;;;;;5052230;28;20037;-59
2023/10/23 06:50:17;;;;;;;19.83;9.40;;;6.00;99.90;;;;;;5052701;28;20411;-57
2023/10/23 06:52:44;;;;;;;15.85;9.57;;;6.30;99.90;;;;;;5052296;28;20045;-52
2023/10/23 06:55:10;;;;;;;17.75;9.70;;;6.20;99.90;;;;;;5052232;28;20051;-53
2023/10/23 06:57:36;;;;;;;19.60;10.40;;;6.00;99.90;;;;;;5052272;28;20051;-52
2023/10/23 07:00:02;;;;;;;18.98;10.10;;;6.00;99.90;;;;;;5052538;28;20037;-52
2023/10/23 07:02:28;;;;;;;21.98;10.63;;;5.90;99.90;;;;;;5052452;28;20044;-56
2023/10/23 07:04:53;;;;;;;21.30;10.25;;;5.80;99.90;;;;;;5034176;28;20040;-54
2023/10/23 07:07:19;;;;;;;22.70;10.90;;;6.10;99.90;;;;;;5050423;28;20480;-54
2023/10/23 07:09:45;;;;;;;22.83;10.95;;;6.00;99.90;;;;;;5050012;28;20074;-57
2023/10/23 07:12:12;;;;;;;18.67;10.30;;;6.00;99.90;;;;;;5051973;28;20075;-55
2023/10/23 07:14:38;;;;;;;21.58;11.10;;;6.30;99.90;;;;;;5051619;28;20037;-57
2023/10/23 07:17:03;;;;;;;18.58;10.43;;;6.40;99.90;;;;;;5051726;28;20236;-56
2023/10/23 07:19:29;;;;;;;17.73;10.13;;;6.20;99.90;;;;;;5027635;28;20587;-57
2023/10/23 07:21:54;;;;;;;18.02;10.93;;;6.10;99.90;;;;;;5041810;28;20468;-59
2023/10/23 07:24:20;;;;;;;22.73;11.77;;;6.00;99.90;;;;;;5043135;28;20671;-52
2023/10/23 07:26:46;;;;;;;24.20;13.25;;;6.10;99.90;;;;;;5024939;28;20656;-56
2023/10/23 07:29:11;;;;;;;21.08;12.00;;;6.50;99.90;;;;;;5041745;28;20382;-55
2023/10/23 07:31:37;;;;;;;22.80;12.52;;;6.80;99.90;;;;;;5044181;28;20033;-54
2023/10/23 07:34:03;;;;;;;25.42;13.75;;;6.80;99.90;;;;;;5042386;28;20045;-57
2023/10/23 07:36:29;;;;;;;33.58;28.92;;;6.80;99.90;;;;;;5025822;28;20033;-55
2023/10/23 07:38:55;;;;;;;26.88;13.32;;;6.70;99.90;;;;;;5044064;28;20522;-56
2023/10/23 07:41:21;;;;;;;32.58;14.20;;;6.60;99.90;;;;;;5043134;28;20077;-55
2023/10/23 07:43:47;;;;;;;35.65;16.35;;;7.00;99.90;;;;;;5020884;28;20045;-56
2023/10/23 07:46:13;;;;;;;45.50;17.85;;;7.30;99.90;;;;;;5042637;28;20045;-57
2023/10/23 07:48:40;;;;;;;46.28;17.80;;;7.40;99.90;;;;;;5043501;28;20451;-56
2023/10/23 07:51:06;;;;;;;40.92;16.33;;;7.10;99.90;;;;;;5043906;28;20036;-52
2023/10/23 07:53:33;;;;;;;51.00;18.35;;;7.20;99.90;;;;;;5043784;28;20107;-56
2023/10/23 07:56:04;;;;;;;89.93;41.22;;;7.20;99.90;;;;;;5041431;28;20037;-57
2023/10/23 07:58:30;;;;;;;53.67;18.42;;;7.40;99.90;;;;;;5043268;28;20032;-57
2023/10/23 08:01:12;;;;;;;80.53;42.25;;;7.90;99.90;;;;;;5045370;28;20490;-57
2023/10/23 08:03:38;;;;;;;60.92;21.23;;;7.70;99.90;;;;;;5049013;28;20036;-55
2023/10/23 08:06:06;;;;;;;57.05;20.98;;;7.80;99.90;;;;;;5048986;28;20029;-57
2023/10/23 08:08:36;;;;;;;59.55;22.73;;;7.70;99.90;;;;;;5051018;28;20063;-58
2023/10/23 08:11:03;;;;;;;58.42;22.98;;;8.20;99.90;;;;;;5050774;28;20040;-56
2023/10/23 08:13:30;;;;;;;64.80;23.73;;;8.20;99.90;;;;;;5050692;28;20033;-59
2023/10/23 08:15:55;;;;;;;58.35;21.83;;;8.40;99.90;;;;;;5050834;28;20362;-54
2023/10/23 08:18:21;;;;;;;65.82;24.08;;;8.20;99.90;;;;;;5050982;28;20075;-58
2023/10/23 08:20:47;;;;;;;65.05;22.33;;;8.40;99.90;;;;;;5050826;28;20106;-57
2023/10/23 08:23:12;;;;;;;64.10;20.95;;;8.00;99.90;;;;;;5050885;28;20162;-56
2023/10/23 08:25:38;;;;;;;55.75;21.73;;;8.20;99.90;;;;;;5050674;28;20068;-56
2023/10/23 08:28:04;;;;;;;61.30;21.00;;;8.00;99.90;;;;;;5050818;28;20076;-57
2023/10/23 08:30:29;;;;;;;45.38;20.15;;;8.00;99.90;;;;;;5032579;28;20076;-54
2023/10/23 08:32:55;;;;;;;54.00;20.52;;;8.50;99.90;;;;;;5050435;28;20041;-57
2023/10/23 08:35:21;;;;;;;58.95;20.00;;;8.40;99.90;;;;;;5050980;28;20075;-56
2023/10/23 08:37:46;;;;;;;54.42;20.95;;;8.30;99.90;;;;;;5050016;28;20037;-55
2023/10/23 08:40:13;;;;;;;54.42;20.77;;;8.40;99.90;;;;;;5050687;28;20477;-58
2023/10/23 08:42:39;;;;;;;55.47;20.50;;;8.20;99.90;;;;;;5050164;28;20040;-54
2023/10/23 08:45:05;;;;;;;51.08;20.10;;;8.70;99.90;;;;;;5050333;28;20186;-57
2023/10/23 08:47:31;;;;;;;51.85;20.65;;;8.40;99.90;;;;;;5047450;28;20049;-58
2023/10/23 08:50:02;;;;;;;59.20;21.80;;;8.90;99.90;;;;;;5048746;28;20032;-57
2023/10/23 08:52:34;;;;;;;53.05;22.27;;;8.50;99.90;;;;;;5048373;28;20080;-56
2023/10/23 08:55:02;;;;;;;49.10;22.50;;;9.10;99.90;;;;;;5048107;28;20036;-57
2023/10/23 08:57:29;;;;;;;54.78;21.75;;;8.90;99.90;;;;;;5030704;28;20045;-55
2023/10/23 08:59:55;;;;;;;60.80;23.40;;;8.90;99.90;;;;;;5030124;28;20044;-57
2023/10/23 09:02:21;;;;;;;53.75;22.80;;;8.80;99.90;;;;;;5049603;28;20052;-56
2023/10/23 09:04:47;;;;;;;51.60;23.35;;;9.40;99.90;;;;;;5049906;28;20120;-56
2023/10/23 09:07:12;;;;;;;62.00;24.27;;;9.30;99.90;;;;;;5049317;28;20175;-55
2023/10/23 09:09:38;;;;;;;59.30;22.88;;;9.50;99.90;;;;;;5050055;28;20032;-58
2023/10/23 09:12:05;;;;;;;71.18;25.70;;;9.50;99.90;;;;;;5052746;28;20384;-55
2023/10/23 09:14:31;;;;;;;80.57;26.80;;;9.20;99.90;;;;;;5050143;28;20072;-58
2023/10/23 09:16:59;;;;;;;80.30;26.45;;;9.20;99.90;;;;;;5050663;28;20044;-56
2023/10/23 09:19:36;;;;;;;84.57;25.80;;;9.30;99.90;;;;;;5051897;28;20041;-57
2023/10/23 09:22:12;;;;;;;71.70;26.05;;;9.50;99.90;;;;;;5045855;28;20041;-56
2023/10/23 09:24:38;;;;;;;68.18;40.85;;;9.60;99.90;;;;;;5050343;28;20520;-56
2023/10/23 09:27:03;;;;;;;64.75;25.63;;;9.50;99.90;;;;;;5050798;28;20108;-60
2023/10/23 09:29:29;;;;;;;65.65;25.35;;;9.40;99.90;;;;;;5049278;28;20045;-57
2023/10/23 09:31:59;;;;;;;63.22;38.97;;;9.80;99.90;;;;;;5036622;28;20033;-53
2023/10/23 09:34:25;;;;;;;61.75;22.92;;;10.10;99.90;;;;;;5045329;28;20047;-56
2023/10/23 09:36:52;;;;;;;60.20;22.40;;;9.60;99.90;;;;;;5052892;28;20416;-53
2023/10/23 09:39:19;;;;;;;92.78;40.75;;;9.90;99.90;;;;;;5052792;28;20033;-54
2023/10/23 09:41:45;;;;;;;65.63;21.83;;;10.20;99.90;;;;;;5053228;28;20520;-53
2023/10/23 09:44:13;;;;;;;91.15;21.85;;;9.80;99.90;;;;;;5053299;28;20041;-56
2023/10/23 09:46:42;;;;;;;80.75;22.70;;;9.70;99.90;;;;;;5052940;28;20053;-56
2023/10/23 09:49:09;;;;;;;51.30;21.25;;;9.80;99.90;;;;;;5053654;28;20178;-57
2023/10/23 09:51:39;;;;;;;69.55;22.50;;;9.80;99.90;;;;;;5034594;28;20051;-56
2023/10/23 09:54:21;;;;;;;62.80;22.30;;;9.70;99.90;;;;;;5053047;28;20045;-53
2023/10/23 09:56:52;;;;;;;61.85;36.05;;;10.30;99.90;;;;;;5051416;28;20415;-52
2023/10/23 09:59:24;;;;;;;58.35;22.40;;;9.80;99.90;;;;;;5053370;28;20044;-55
2023/10/23 10:01:50;;;;;;;60.75;24.30;;;9.90;99.90;;;;;;5053271;28;20041;-55
2023/10/23 10:04:26;;;;;;;56.70;24.15;;;10.50;99.90;;;;;;5053496;28;20477;-55
2023/10/23 10:07:04;;;;;;;62.30;26.27;;;10.10;99.90;;;;;;5050680;28;20041;-55
2023/10/23 10:09:31;;;;;;;60.63;25.05;;;10.60;99.90;;;;;;5049368;28;20484;-53
2023/10/23 10:11:58;;;;;;;63.22;27.25;;;10.30;99.90;;;;;;5029322;28;20088;-55
2023/10/23 10:14:25;;;;;;;59.60;28.15;;;10.70;99.90;;;;;;5047473;28;20041;-52
2023/10/23 10:16:55;;;;;;;53.22;25.70;;;10.50;99.90;;;;;;5047020;28;20041;-53
2023/10/23 10:19:21;;;;;;;51.70;26.38;;;10.90;99.90;;;;;;5045209;28;20076;-54
2023/10/23 10:22:03;;;;;;;51.88;26.77;;;10.80;99.90;;;;;;5049558;28;20481;-54
2023/10/23 10:24:30;;;;;;;51.60;25.73;;;11.10;99.90;;;;;;5048784;28;20087;-53
2023/10/23 10:26:56;;;;;;;43.13;24.17;;;11.00;99.90;;;;;;5047405;28;20049;-54
2023/10/23 10:29:26;;;;;;;42.15;22.77;;;10.60;99.90;;;;;;5028844;28;20041;-53
2023/10/23 10:32:06;;;;;;;40.28;22.38;;;10.70;99.90;;;;;;5033947;28;20511;-55
2023/10/23 10:34:51;;;;;;;45.58;22.20;;;11.10;99.90;;;;;;5052746;28;20036;-55
2023/10/23 10:37:16;;;;;;;38.00;20.88;;;11.10;99.90;;;;;;5052805;28;20035;-56
2023/10/23 10:40:03;;;;;;;39.72;21.30;;;11.40;99.90;;;;;;5052808;28;20033;-57
2023/10/23 10:42:30;;;;;;;38.13;22.58;;;11.00;99.90;;;;;;5051144;28;20047;-57
2023/10/23 10:44:56;;;;;;;39.10;22.08;;;11.30;99.90;;;;;;5051872;28;20053;-56
2023/10/23 10:47:49;;;;;;;37.92;21.65;;;11.60;99.90;;;;;;5052194;28;20041;-56
2023/10/23 10:50:38;;;;;;;32.25;19.33;;;11.70;99.90;;;;;;5052447;28;20048;-56
2023/10/23 10:53:06;;;;;;;34.05;18.55;;;11.40;99.90;;;;;;5034825;28;20099;-56
2023/10/23 10:55:33;;;;;;;32.70;18.08;;;11.30;99.90;;;;;;5052456;28;20472;-56
2023/10/23 10:58:00;;;;;;;27.17;18.05;;;11.60;99.90;;;;;;5052164;28;20070;-56
2023/10/23 11:00:33;;;;;;;27.83;18.38;;;11.50;99.90;;;;;;5034461;28;20523;-56
2023/10/23 11:03:00;;;;;;;27.95;17.13;;;11.30;99.90;;;;;;5052467;28;20091;-56
2023/10/23 11:05:26;;;;;;;29.15;18.42;;;11.30;99.90;;;;;;5031658;28;20049;-56
2023/10/23 11:07:51;;;;;;;27.70;18.00;;;11.40;99.90;;;;;;5033997;28;20032;-54
2023/10/23 11:10:19;;;;;;;32.13;18.60;;;11.60;99.90;;;;;;5050390;28;20480;-56
2023/10/23 11:12:46;;;;;;;30.58;18.58;;;11.20;99.90;;;;;;5048391;28;20095;-55
2023/10/23 11:15:13;;;;;;;30.58;18.83;;;11.50;99.90;;;;;;5049707;28;20045;-55
2023/10/23 11:17:41;;;;;;;29.30;19.58;;;11.70;99.90;;;;;;5050224;28;20037;-55
2023/10/23 11:20:15;;;;;;;32.90;18.83;;;11.30;99.90;;;;;;5049581;28;20041;-55
2023/10/23 11:22:47;;;;;;;31.27;18.45;;;11.30;99.90;;;;;;5050146;28;20457;-55
2023/10/23 11:25:14;;;;;;;30.55;18.83;;;11.70;99.90;;;;;;5050332;28;20425;-54
2023/10/23 11:27:40;;;;;;;30.52;25.98;;;11.40;99.90;;;;;;5049507;28;20037;-55
2023/10/23 11:30:07;;;;;;;36.33;19.10;;;11.50;99.90;;;;;;5048852;28;20563;-57
2023/10/23 11:32:33;;;;;;;34.25;27.40;;;11.70;99.90;;;;;;5050251;28;20049;-54
2023/10/23 11:35:05;;;;;;;32.53;26.60;;;11.80;99.90;;;;;;5050918;28;20076;-55
2023/10/23 11:37:38;;;;;;;34.03;19.08;;;11.40;99.90;;;;;;5050891;28;20041;-54
2023/10/23 11:40:07;;;;;;;38.30;20.38;;;11.60;99.90;;;;;;5051563;28;20076;-56
2023/10/23 11:42:41;;;;;;;36.97;28.50;;;11.70;99.90;;;;;;5051066;28;20392;-56
2023/10/23 11:45:09;;;;;;;;;;;11.70;99.90;;;;;;5051669;28;20049;-56
2023/10/23 11:47:37;;;;;;;38.85;20.17;;;11.60;99.90;;;;;;5051365;28;20015;-56
2023/10/23 11:50:06;;;;;;;39.60;20.15;;;11.30;99.90;;;;;;5049745;28;20037;-56
2023/10/23 11:52:33;;;;;;;39.85;21.35;;;11.20;99.90;;;;;;5051215;28;20564;-56
2023/10/23 11:54:59;;;;;;;39.63;21.77;;;11.60;99.90;;;;;;5051257;28;20112;-56
2023/10/23 11:57:24;;;;;;;40.33;22.40;;;11.20;99.90;;;;;;5051445;28;20116;-56
2023/10/23 11:59:50;;;;;;;39.88;21.77;;;11.60;99.90;;;;;;5051373;28;20063;-55
2023/10/23 12:02:16;;;;;;;42.78;22.80;;;11.50;99.90;;;;;;5051277;28;20040;-56
2023/10/23 12:04:42;;;;;;;44.20;22.92;;;11.50;99.90;;;;;;5050925;28;20052;-56
2023/10/23 12:07:08;;;;;;;43.28;22.42;;;11.60;99.90;;;;;;5031940;28;20037;-56
2023/10/23 12:09:33;;;;;;;47.08;23.10;;;11.70;99.90;;;;;;5050570;28;20064;-56
2023/10/23 12:11:59;;;;;;;38.38;21.88;;;11.50;99.90;;;;;;5050730;28;20068;-56
2023/10/23 12:14:25;;;;;;;43.30;22.77;;;11.40;99.90;;;;;;5049937;28;20454;-56
2023/10/23 12:16:50;;;;;;;41.63;22.67;;;11.40;99.90;;;;;;5051205;28;20037;-54
2023/10/23 12:19:16;;;;;;;44.53;22.23;;;11.80;99.90;;;;;;5051023;28;20048;-56
2023/10/23 12:21:42;;;;;;;44.65;22.83;;;11.50;99.90;;;;;;5050539;28;20036;-56
2023/10/23 12:24:07;;;;;;;44.88;21.65;;;11.60;99.90;;;;;;5049254;28;20084;-55
2023/10/23 12:26:34;;;;;;;41.83;21.98;;;11.60;99.90;;;;;;5050804;28;20060;-57
2023/10/23 12:28:59;;;;;;;38.72;20.92;;;11.60;99.90;;;;;;5050325;28;20361;-57
2023/10/23 12:31:26;;;;;;;40.35;30.08;;;11.80;99.90;;;;;;5050850;28;20044;-56
2023/10/23 12:33:52;;;;;;;41.38;22.65;;;12.10;99.90;;;;;;5033140;28;20488;-55
2023/10/23 12:36:19;;;;;;;46.35;22.65;;;11.70;99.90;;;;;;5050807;28;20044;-54
2023/10/23 12:38:44;;;;;;;40.28;20.85;;;11.80;99.90;;;;;;5050262;28;20049;-53